Private Wetterstation Sandau
Wetterdaten: Samstag, 06.10.2012
Datum Zeit Temp. A. Feuchte A. Luftdruck Regen Wind Richtung Richtung Taupunkt Windchill
06.10.2012 00:01 12,2 C 79 % 1010,3 hPa 0,0 l/m 7,2 km/h (2 Bft) W-NW 292 8,7 C 12,2 C
06.10.2012 00:06 12,2 C 79 % 1010,7 hPa 0,0 l/m 9,0 km/h (2 Bft) W-NW 292 8,7 C 12,2 C
06.10.2012 00:11 12,2 C 79 % 1010,9 hPa 0,0 l/m 14,0 km/h (3 Bft) W 270 8,7 C 12,2 C
06.10.2012 00:16 12,1 C 79 % 1010,5 hPa 0,0 l/m 13,0 km/h (3 Bft) W 270 8,6 C 12,1 C
06.10.2012 00:21 12,1 C 78 % 1010,7 hPa 0,0 l/m 12,2 km/h (2 Bft) W-SW 247 8,4 C 12,1 C
06.10.2012 00:26 12,1 C 78 % 1010,7 hPa 0,0 l/m 27,7 km/h (4 Bft) W-SW 247 8,4 C 12,1 C
06.10.2012 00:31 12,1 C 78 % 1010,8 hPa 0,0 l/m 11,9 km/h (2 Bft) W-SW 247 8,4 C 12,1 C
06.10.2012 00:36 12,1 C 78 % 1010,7 hPa 0,0 l/m 22,0 km/h (4 Bft) W 270 8,4 C 12,1 C
06.10.2012 00:41 12,1 C 78 % 1010,7 hPa 0,0 l/m 14,8 km/h (3 Bft) W 270 8,4 C 12,1 C
06.10.2012 00:46 12,1 C 78 % 1010,7 hPa 0,0 l/m 17,3 km/h (3 Bft) W-SW 247 8,4 C 12,1 C
06.10.2012 00:51 12,1 C 78 % 1010,7 hPa 0,0 l/m 16,6 km/h (3 Bft) W-SW 247 8,4 C 12,1 C
06.10.2012 00:56 12,1 C 78 % 1010,6 hPa 0,0 l/m 7,2 km/h (2 Bft) W 270 8,4 C 12,1 C
06.10.2012 01:01 12,0 C 78 % 1010,6 hPa 0,0 l/m 15,5 km/h (3 Bft) W-SW 247 8,3 C 12,0 C
06.10.2012 01:06 12,0 C 79 % 1010,6 hPa 0,0 l/m 16,6 km/h (3 Bft) W-SW 247 8,5 C 12,0 C
06.10.2012 01:11 11,9 C 79 % 1010,7 hPa 0,0 l/m 11,9 km/h (2 Bft) SW 225 8,4 C 11,9 C
06.10.2012 01:16 11,9 C 79 % 1010,9 hPa 0,0 l/m 10,8 km/h (2 Bft) W-NW 292 8,4 C 11,9 C
06.10.2012 01:21 11,9 C 80 % 1010,9 hPa 0,0 l/m 6,1 km/h (2 Bft) W 270 8,6 C 11,9 C
06.10.2012 01:26 11,9 C 80 % 1011,0 hPa 0,0 l/m 14,4 km/h (3 Bft) W-SW 247 8,6 C 11,9 C
06.10.2012 01:31 11,9 C 80 % 1011,0 hPa 0,0 l/m 29,5 km/h (5 Bft) W 270 8,6 C 11,9 C
06.10.2012 01:36 11,9 C 80 % 1011,0 hPa 0,0 l/m 15,8 km/h (3 Bft) W-SW 247 8,6 C 11,9 C
06.10.2012 01:41 12,0 C 80 % 1011,1 hPa 0,0 l/m 16,6 km/h (3 Bft) W-SW 247 8,7 C 12,0 C
06.10.2012 01:46 12,0 C 80 % 1011,0 hPa 0,0 l/m 7,9 km/h (2 Bft) W-SW 247 8,7 C 12,0 C
06.10.2012 01:51 12,0 C 81 % 1010,8 hPa 0,0 l/m 5,0 km/h (1 Bft) W 270 8,8 C 12,0 C
06.10.2012 01:56 12,0 C 81 % 1010,9 hPa 0,0 l/m 5,8 km/h (2 Bft) W 270 8,8 C 12,0 C
06.10.2012 02:01 12,0 C 82 % 1010,8 hPa 0,0 l/m 9,0 km/h (2 Bft) W 270 9,0 C 12,0 C
06.10.2012 02:06 12,0 C 82 % 1010,7 hPa 0,0 l/m 13,0 km/h (3 Bft) SW 225 9,0 C 12,0 C
06.10.2012 02:11 12,0 C 83 % 1010,7 hPa 0,0 l/m 10,1 km/h (2 Bft) S 180 9,2 C 12,0 C
06.10.2012 02:16 12,0 C 84 % 1010,8 hPa 0,0 l/m 10,8 km/h (2 Bft) SW 225 9,4 C 12,0 C
06.10.2012 02:21 12,0 C 84 % 1010,8 hPa 0,0 l/m 7,2 km/h (2 Bft) W-SW 247 9,4 C 12,0 C
06.10.2012 02:26 12,0 C 84 % 1010,6 hPa 0,0 l/m 6,8 km/h (2 Bft) SW 225 9,4 C 12,0 C
06.10.2012 02:31 12,0 C 85 % 1010,7 hPa 0,0 l/m 8,3 km/h (2 Bft) SW 225 9,6 C 12,0 C
06.10.2012 02:36 12,1 C 85 % 1010,7 hPa 0,0 l/m 18,0 km/h (3 Bft) W-SW 247 9,7 C 12,1 C
06.10.2012 02:41 12,1 C 85 % 1010,6 hPa 0,0 l/m 6,5 km/h (2 Bft) W-SW 247 9,7 C 12,1 C
06.10.2012 02:46 12,1 C 85 % 1010,8 hPa 0,0 l/m 8,3 km/h (2 Bft) W-SW 247 9,7 C 12,1 C
06.10.2012 02:51 12,1 C 86 % 1010,8 hPa 0,0 l/m 8,3 km/h (2 Bft) SW 225 9,8 C 12,1 C
06.10.2012 02:56 12,1 C 86 % 1010,8 hPa 0,0 l/m 8,6 km/h (2 Bft) SW 225 9,8 C 12,1 C
06.10.2012 03:01 12,1 C 86 % 1010,7 hPa 0,0 l/m 19,8 km/h (3 Bft) SW 225 9,8 C 12,1 C
06.10.2012 03:06 12,1 C 86 % 1010,6 hPa 0,0 l/m 3,2 km/h (1 Bft) S-SO 157 9,8 C 12,1 C
06.10.2012 03:11 12,1 C 86 % 1010,6 hPa 0,0 l/m 9,7 km/h (2 Bft) W 270 9,8 C 12,1 C
06.10.2012 03:16 12,1 C 86 % 1010,6 hPa 0,0 l/m 11,2 km/h (2 Bft) SW 225 9,8 C 12,1 C
06.10.2012 03:21 12,1 C 86 % 1010,6 hPa 0,0 l/m 10,8 km/h (2 Bft) W 270 9,8 C 12,1 C
06.10.2012 03:26 12,0 C 85 % 1010,6 hPa 0,0 l/m 12,2 km/h (2 Bft) W-SW 247 9,6 C 12,0 C
06.10.2012 03:31 12,0 C 85 % 1010,6 hPa 0,0 l/m 11,2 km/h (2 Bft) W 270 9,6 C 12,0 C
06.10.2012 03:36 11,9 C 85 % 1010,7 hPa 0,0 l/m 12,2 km/h (2 Bft) W-SW 247 9,5 C 11,9 C
06.10.2012 03:41 11,9 C 85 % 1010,6 hPa 0,0 l/m 7,9 km/h (2 Bft) W-SW 247 9,5 C 11,9 C
06.10.2012 03:46 11,9 C 85 % 1010,7 hPa 0,0 l/m 10,8 km/h (2 Bft) W-SW 247 9,5 C 11,9 C
06.10.2012 03:51 11,9 C 84 % 1010,6 hPa 0,0 l/m 21,6 km/h (4 Bft) W 270 9,3 C 11,9 C
06.10.2012 03:56 11,8 C 84 % 1010,6 hPa 0,0 l/m 11,2 km/h (2 Bft) W-SW 247 9,2 C 11,8 C
06.10.2012 04:01 11,8 C 84 % 1010,5 hPa 0,0 l/m 19,4 km/h (3 Bft) SW 225 9,2 C 11,8 C
06.10.2012 04:06 11,6 C 84 % 1010,4 hPa 0,0 l/m 5,8 km/h (2 Bft) W-NW 292 9,0 C 11,6 C
06.10.2012 04:11 11,6 C 85 % 1010,5 hPa 0,0 l/m 7,9 km/h (2 Bft) W 270 9,2 C 11,6 C
06.10.2012 04:16 11,5 C 85 % 1010,5 hPa 0,0 l/m 19,8 km/h (3 Bft) W-SW 247 9,1 C 11,5 C
06.10.2012 04:21 11,4 C 85 % 1010,4 hPa 0,0 l/m 10,1 km/h (2 Bft) S-SW 202 9,0 C 11,4 C
06.10.2012 04:26 11,3 C 85 % 1010,5 hPa 0,0 l/m 13,0 km/h (3 Bft) SW 225 8,9 C 11,3 C
06.10.2012 04:31 11,2 C 85 % 1010,5 hPa 0,0 l/m 19,1 km/h (3 Bft) W-NW 292 8,8 C 11,2 C
06.10.2012 04:36 11,2 C 84 % 1010,6 hPa 0,0 l/m 16,2 km/h (3 Bft) W 270 8,6 C 11,2 C
06.10.2012 04:41 11,1 C 84 % 1010,7 hPa 0,0 l/m 7,9 km/h (2 Bft) W-SW 247 8,5 C 11,1 C
06.10.2012 04:46 11,1 C 84 % 1010,6 hPa 0,0 l/m 14,8 km/h (3 Bft) W 270 8,5 C 11,1 C
06.10.2012 04:51 11,0 C 84 % 1010,5 hPa 0,0 l/m 12,6 km/h (3 Bft) W-SW 247 8,4 C 11,0 C
06.10.2012 04:56 10,9 C 84 % 1010,2 hPa 0,0 l/m 13,3 km/h (3 Bft) W-SW 247 8,3 C 10,9 C
06.10.2012 05:01 10,9 C 84 % 1010,2 hPa 0,0 l/m 6,8 km/h (2 Bft) W 270 8,3 C 10,9 C
06.10.2012 05:06 10,9 C 84 % 1010,2 hPa 0,0 l/m 11,2 km/h (2 Bft) S 180 8,3 C 10,9 C
06.10.2012 05:11 10,8 C 84 % 1010,1 hPa 0,0 l/m 10,1 km/h (2 Bft) W-SW 247 8,2 C 10,8 C
06.10.2012 05:16 10,8 C 84 % 1010,0 hPa 0,0 l/m 6,5 km/h (2 Bft) W-SW 247 8,2 C 10,8 C
06.10.2012 05:21 10,7 C 84 % 1010,0 hPa 0,0 l/m 8,6 km/h (2 Bft) W-SW 247 8,1 C 10,7 C
06.10.2012 05:26 10,6 C 85 % 1009,9 hPa 0,0 l/m 3,6 km/h (1 Bft) S-SW 202 8,2 C 10,6 C
06.10.2012 05:31 10,5 C 85 % 1009,9 hPa 0,0 l/m 10,4 km/h (2 Bft) W-SW 247 8,1 C 10,5 C
06.10.2012 05:36 10,5 C 85 % 1009,9 hPa 0,0 l/m 6,8 km/h (2 Bft) W-SW 247 8,1 C 10,5 C
06.10.2012 05:41 10,4 C 85 % 1009,9 hPa 0,0 l/m 8,6 km/h (2 Bft) W-SW 247 8,0 C 10,4 C
06.10.2012 05:46 10,4 C 85 % 1009,8 hPa 0,0 l/m 9,4 km/h (2 Bft) W-SW 247 8,0 C 10,4 C
06.10.2012 05:51 10,4 C 85 % 1009,7 hPa 0,0 l/m 9,4 km/h (2 Bft) SW 225 8,0 C 10,4 C
06.10.2012 05:56 10,4 C 85 % 1010,0 hPa 0,0 l/m 4,0 km/h (1 Bft) W-SW 247 8,0 C 10,4 C
06.10.2012 06:01 10,4 C 85 % 1009,9 hPa 0,0 l/m 7,6 km/h (2 Bft) W-SW 247 8,0 C 10,4 C
06.10.2012 06:06 10,4 C 85 % 1009,9 hPa 0,0 l/m 9,4 km/h (2 Bft) SW 225 8,0 C 10,4 C
06.10.2012 06:11 10,4 C 85 % 1010,0 hPa 0,0 l/m 3,6 km/h (1 Bft) W-SW 247 8,0 C 10,4 C
06.10.2012 06:16 10,4 C 85 % 1010,0 hPa 0,0 l/m 13,3 km/h (3 Bft) W 270 8,0 C 10,4 C
06.10.2012 06:21 10,4 C 85 % 1010,2 hPa 0,0 l/m 6,1 km/h (2 Bft) W 270 8,0 C 10,4 C
06.10.2012 06:26 10,4 C 85 % 1010,2 hPa 0,0 l/m 6,5 km/h (2 Bft) W 270 8,0 C 10,4 C
06.10.2012 06:31 10,3 C 85 % 1009,2 hPa 0,0 l/m 2,5 km/h (1 Bft) S-SW 202 7,9 C 10,3 C
06.10.2012 06:36 10,3 C 85 % 1009,3 hPa 0,5 l/m 6,5 km/h (2 Bft) W-SW 247 7,9 C 10,3 C
06.10.2012 06:41 10,3 C 85 % 1009,1 hPa 0,0 l/m 0,0 km/h (0 Bft) W-SW 247 7,9 C 10,3 C
06.10.2012 06:46 10,3 C 85 % 1009,3 hPa 0,0 l/m 0,0 km/h (0 Bft) SW 225 7,9 C 10,3 C
06.10.2012 06:51 10,2 C 85 % 1009,0 hPa 0,0 l/m 3,6 km/h (1 Bft) S-SO 157 7,8 C 10,2 C
06.10.2012 06:56 10,2 C 85 % 1008,8 hPa 0,0 l/m 0,0 km/h (0 Bft) S-SO 157 7,8 C 10,2 C
06.10.2012 07:01 10,1 C 86 % 1008,8 hPa 0,0 l/m 0,0 km/h (0 Bft) S 180 7,9 C 10,1 C
06.10.2012 07:06 10,1 C 86 % 1009,1 hPa 0,5 l/m 0,0 km/h (0 Bft) S 180 7,9 C 10,1 C
06.10.2012 07:11 10,1 C 86 % 1009,1 hPa 0,0 l/m 0,0 km/h (0 Bft) W 270 7,9 C 10,1 C
06.10.2012 07:16 10,1 C 86 % 1009,0 hPa 0,5 l/m 1,4 km/h (1 Bft) W 270 7,9 C 10,1 C
06.10.2012 07:21 10,1 C 86 % 1009,2 hPa 0,0 l/m 0,0 km/h (0 Bft) SW 225 7,9 C 10,1 C
06.10.2012 07:26 10,1 C 87 % 1009,1 hPa 0,5 l/m 6,5 km/h (2 Bft) W-SW 247 8,0 C 10,1 C
06.10.2012 07:31 9,9 C 87 % 1009,1 hPa 0,5 l/m 5,8 km/h (2 Bft) W-SW 247 7,8 C 9,4 C
06.10.2012 07:36 9,9 C 87 % 1009,0 hPa 0,0 l/m 3,2 km/h (1 Bft) W-SW 247 7,8 C 9,9 C
06.10.2012 07:41 9,8 C 87 % 1009,0 hPa 0,5 l/m 2,9 km/h (1 Bft) W 270 7,7 C 9,8 C
06.10.2012 07:46 9,8 C 87 % 1009,0 hPa 0,0 l/m 6,1 km/h (2 Bft) W-SW 247 7,7 C 9,2 C
06.10.2012 07:51 9,8 C 88 % 1008,9 hPa 0,5 l/m 3,6 km/h (1 Bft) S 180 7,9 C 9,8 C
06.10.2012 07:56 9,8 C 88 % 1008,6 hPa 0,0 l/m 5,0 km/h (1 Bft) S-SO 157 7,9 C 9,5 C
06.10.2012 08:01 9,7 C 88 % 1008,4 hPa 0,5 l/m 0,0 km/h (0 Bft) S 180 7,8 C 9,7 C
06.10.2012 08:06 9,7 C 88 % 1008,4 hPa 0,0 l/m 0,0 km/h (0 Bft) W-SW 247 7,8 C 9,7 C
06.10.2012 08:11 9,6 C 88 % 1008,2 hPa 0,0 l/m 2,9 km/h (1 Bft) S-SW 202 7,7 C 9,6 C
06.10.2012 08:16 9,6 C 89 % 1008,2 hPa 0,0 l/m 0,0 km/h (0 Bft) S 180 7,9 C 9,6 C
06.10.2012 08:21 9,7 C 89 % 1008,4 hPa 0,0 l/m 0,0 km/h (0 Bft) S 180 8,0 C 9,7 C
06.10.2012 08:26 9,8 C 89 % 1008,2 hPa 0,0 l/m 0,0 km/h (0 Bft) S 180 8,1 C 9,8 C
06.10.2012 08:31 9,8 C 89 % 1008,3 hPa 0,0 l/m 1,8 km/h (1 Bft) S 180 8,1 C 9,8 C
06.10.2012 08:36 9,8 C 89 % 1008,3 hPa 0,5 l/m 0,0 km/h (0 Bft) S 180 8,1 C 9,8 C
06.10.2012 08:41 9,8 C 89 % 1008,0 hPa 0,0 l/m 0,0 km/h (0 Bft) SO 135 8,1 C 9,8 C
06.10.2012 08:46 9,8 C 89 % 1008,2 hPa 0,0 l/m 0,0 km/h (0 Bft) W 270 8,1 C 9,8 C
06.10.2012 08:51 9,8 C 89 % 1008,2 hPa 0,0 l/m 0,0 km/h (0 Bft) W 270 8,1 C 9,8 C
06.10.2012 08:56 9,8 C 89 % 1007,8 hPa 0,5 l/m 0,0 km/h (0 Bft) S-SO 157 8,1 C 9,8 C
06.10.2012 09:01 9,8 C 89 % 1008,1 hPa 0,0 l/m 0,0 km/h (0 Bft) W-SW 247 8,1 C 9,8 C
06.10.2012 09:06 9,7 C 89 % 1008,2 hPa 0,0 l/m 0,0 km/h (0 Bft) W-SW 247 8,0 C 9,7 C
06.10.2012 09:11 9,8 C 89 % 1008,4 hPa 0,5 l/m 0,0 km/h (0 Bft) W-SW 247 8,1 C 9,8 C
06.10.2012 09:16 9,8 C 89 % 1008,0 hPa 0,5 l/m 0,0 km/h (0 Bft) S-SO 157 8,1 C 9,8 C
06.10.2012 09:21 9,8 C 89 % 1008,2 hPa 0,0 l/m 0,0 km/h (0 Bft) S 180 8,1 C 9,8 C
06.10.2012 09:26 9,8 C 89 % 1007,8 hPa 0,0 l/m 3,2 km/h (1 Bft) SO 135 8,1 C 9,8 C
06.10.2012 09:31 9,7 C 90 % 1007,7 hPa 0,0 l/m 5,0 km/h (1 Bft) SO 135 8,1 C 9,4 C
06.10.2012 09:36 9,7 C 90 % 1007,6 hPa 0,0 l/m 4,0 km/h (1 Bft) SO 135 8,1 C 9,7 C
06.10.2012 09:41 9,6 C 90 % 1007,4 hPa 0,0 l/m 4,3 km/h (1 Bft) S-SO 157 8,0 C 9,6 C
06.10.2012 09:46 9,6 C 90 % 1007,1 hPa 0,0 l/m 5,0 km/h (1 Bft) SO 135 8,0 C 9,3 C
06.10.2012 09:51 9,6 C 90 % 1007,0 hPa 0,5 l/m 2,5 km/h (1 Bft) S-SO 157 8,0 C 9,6 C
06.10.2012 09:56 9,6 C 90 % 1007,1 hPa 0,0 l/m 4,0 km/h (1 Bft) O-SO 112 8,0 C 9,6 C
06.10.2012 10:01 9,8 C 90 % 1007,2 hPa 0,0 l/m 3,6 km/h (1 Bft) S 180 8,2 C 9,8 C
06.10.2012 10:06 9,8 C 90 % 1006,9 hPa 0,0 l/m 6,1 km/h (2 Bft) S-SO 157 8,2 C 9,2 C
06.10.2012 10:11 9,8 C 90 % 1006,7 hPa 0,0 l/m 4,0 km/h (1 Bft) S-SO 157 8,2 C 9,8 C
06.10.2012 10:16 9,8 C 90 % 1006,9 hPa 0,0 l/m 5,0 km/h (1 Bft) S-SO 157 8,2 C 9,5 C
06.10.2012 10:21 9,8 C 90 % 1006,7 hPa 0,0 l/m 4,3 km/h (1 Bft) S-SO 157 8,2 C 9,8 C
06.10.2012 10:26 9,8 C 90 % 1006,7 hPa 0,0 l/m 1,4 km/h (1 Bft) S-SO 157 8,2 C 9,8 C
06.10.2012 10:31 9,8 C 90 % 1006,6 hPa 0,0 l/m 7,6 km/h (2 Bft) S-SO 157 8,2 C 8,9 C
06.10.2012 10:36 9,9 C 90 % 1006,7 hPa 0,0 l/m 7,9 km/h (2 Bft) S 180 8,3 C 8,9 C
06.10.2012 10:41 9,9 C 90 % 1006,6 hPa 0,0 l/m 6,1 km/h (2 Bft) S-SO 157 8,3 C 9,3 C
06.10.2012 10:46 9,9 C 90 % 1006,7 hPa 0,0 l/m 4,7 km/h (1 Bft) SO 135 8,3 C 9,7 C
06.10.2012 10:51 10,1 C 90 % 1006,8 hPa 0,0 l/m 2,5 km/h (1 Bft) SO 135 8,5 C 10,1 C
06.10.2012 10:56 10,1 C 90 % 1006,6 hPa 0,0 l/m 0,0 km/h (0 Bft) S-SO 157 8,5 C 10,1 C
06.10.2012 11:01 10,2 C 90 % 1006,6 hPa 0,0 l/m 0,0 km/h (0 Bft) S-SO 157 8,6 C 10,2 C
06.10.2012 11:06 10,4 C 90 % 1006,3 hPa 0,0 l/m 0,0 km/h (0 Bft) O-SO 112 8,8 C 10,4 C
06.10.2012 11:11 10,4 C 91 % 1006,3 hPa 0,0 l/m 0,0 km/h (0 Bft) O 90 9,0 C 10,4 C
06.10.2012 11:16 10,5 C 91 % 1006,2 hPa 0,0 l/m 3,2 km/h (1 Bft) S-SO 157 9,1 C 10,5 C
06.10.2012 11:21 10,6 C 91 % 1006,5 hPa 0,0 l/m 7,9 km/h (2 Bft) N 360 9,2 C 10,6 C
06.10.2012 11:26 10,5 C 91 % 1006,8 hPa 0,0 l/m 5,0 km/h (1 Bft) N 360 9,1 C 10,5 C
06.10.2012 11:31 10,4 C 91 % 1006,3 hPa 0,5 l/m 13,0 km/h (3 Bft) N 360 9,0 C 10,4 C
06.10.2012 11:36 10,4 C 91 % 1005,9 hPa 0,0 l/m 9,7 km/h (2 Bft) SW 225 9,0 C 10,4 C
06.10.2012 11:41 10,7 C 91 % 1005,9 hPa 0,0 l/m 14,8 km/h (3 Bft) S-SW 202 9,3 C 10,7 C
06.10.2012 11:46 10,9 C 91 % 1006,0 hPa 0,0 l/m 4,7 km/h (1 Bft) S-SW 202 9,5 C 10,9 C
06.10.2012 11:51 11,2 C 91 % 1005,8 hPa 0,0 l/m 6,8 km/h (2 Bft) SW 225 9,8 C 11,2 C
06.10.2012 11:56 11,4 C 91 % 1005,7 hPa 0,0 l/m 7,2 km/h (2 Bft) S-SW 202 10,0 C 11,4 C
06.10.2012 12:01 11,6 C 92 % 1005,5 hPa 0,0 l/m 4,0 km/h (1 Bft) S-SW 202 10,3 C 11,6 C
06.10.2012 12:06 11,8 C 92 % 1005,5 hPa 0,0 l/m 4,0 km/h (1 Bft) S-SW 202 10,5 C 11,8 C
06.10.2012 12:11 12,0 C 92 % 1005,5 hPa 0,0 l/m 6,1 km/h (2 Bft) SW 225 10,7 C 12,0 C
06.10.2012 12:16 12,1 C 92 % 1005,4 hPa 0,0 l/m 8,3 km/h (2 Bft) S-SW 202 10,8 C 12,1 C
06.10.2012 12:21 12,3 C 92 % 1005,3 hPa 0,0 l/m 8,3 km/h (2 Bft) S-SW 202 11,0 C 12,3 C
06.10.2012 12:26 12,6 C 92 % 1005,2 hPa 0,0 l/m 7,2 km/h (2 Bft) S 180 11,3 C 12,6 C
06.10.2012 12:31 12,8 C 92 % 1005,2 hPa 0,0 l/m 7,2 km/h (2 Bft) W 270 11,5 C 12,8 C
06.10.2012 12:36 12,9 C 91 % 1005,1 hPa 0,0 l/m 14,4 km/h (3 Bft) S-SW 202 11,5 C 12,9 C
06.10.2012 12:41 12,9 C 91 % 1005,0 hPa 0,0 l/m 11,5 km/h (2 Bft) W-SW 247 11,5 C 12,9 C
06.10.2012 12:46 13,0 C 91 % 1005,1 hPa 0,0 l/m 13,0 km/h (3 Bft) W-SW 247 11,6 C 13,0 C
06.10.2012 12:51 13,1 C 91 % 1005,1 hPa 0,0 l/m 21,6 km/h (4 Bft) W-SW 247 11,7 C 13,1 C
06.10.2012 12:56 13,2 C 91 % 1004,9 hPa 0,0 l/m 15,1 km/h (3 Bft) W-SW 247 11,8 C 13,2 C
06.10.2012 13:01 13,2 C 91 % 1004,7 hPa 0,0 l/m 12,6 km/h (3 Bft) W 270 11,8 C 13,2 C
06.10.2012 13:06 13,3 C 91 % 1004,4 hPa 0,0 l/m 13,3 km/h (3 Bft) S-SW 202 11,9 C 13,3 C
06.10.2012 13:11 13,5 C 90 % 1004,2 hPa 0,0 l/m 9,7 km/h (2 Bft) W-SW 247 11,9 C 13,5 C
06.10.2012 13:16 13,6 C 90 % 1004,2 hPa 0,0 l/m 13,3 km/h (3 Bft) SW 225 12,0 C 13,6 C
06.10.2012 13:21 13,8 C 90 % 1004,2 hPa 0,0 l/m 14,4 km/h (3 Bft) W 270 12,2 C 13,8 C
06.10.2012 13:26 13,9 C 90 % 1004,0 hPa 0,0 l/m 2,5 km/h (1 Bft) W-SW 247 12,3 C 13,9 C
06.10.2012 13:31 13,9 C 90 % 1003,9 hPa 0,0 l/m 4,0 km/h (1 Bft) S-SW 202 12,3 C 13,9 C
06.10.2012 13:36 13,9 C 90 % 1003,9 hPa 0,0 l/m 3,6 km/h (1 Bft) S-SW 202 12,3 C 13,9 C
06.10.2012 13:41 13,9 C 90 % 1003,9 hPa 0,5 l/m 1,8 km/h (1 Bft) W-SW 247 12,3 C 13,9 C
06.10.2012 13:46 13,9 C 90 % 1003,9 hPa 0,0 l/m 4,0 km/h (1 Bft) S-SW 202 12,3 C 13,9 C
06.10.2012 13:51 13,9 C 90 % 1003,9 hPa 0,5 l/m 0,0 km/h (0 Bft) S-SW 202 12,3 C 13,9 C
06.10.2012 13:56 13,8 C 90 % 1003,7 hPa 0,0 l/m 2,9 km/h (1 Bft) W 270 12,2 C 13,8 C
06.10.2012 14:01 13,8 C 90 % 1003,7 hPa 0,5 l/m 4,0 km/h (1 Bft) W-NW 292 12,2 C 13,8 C
06.10.2012 14:06 13,9 C 90 % 1004,5 hPa 0,0 l/m 28,4 km/h (4 Bft) NO 45 12,3 C 13,9 C
06.10.2012 14:11 12,8 C 86 % 1004,9 hPa 2,1 l/m 9,7 km/h (2 Bft) N 360 10,5 C 12,8 C
06.10.2012 14:16 11,9 C 88 % 1004,8 hPa 4,7 l/m 9,4 km/h (2 Bft) NO 45 10,0 C 11,9 C
06.10.2012 14:21 11,5 C 89 % 1005,1 hPa 0,5 l/m 8,3 km/h (2 Bft) NO 45 9,8 C 11,5 C
06.10.2012 14:26 11,2 C 89 % 1005,2 hPa 0,5 l/m 21,2 km/h (4 Bft) N 360 9,5 C 11,2 C
06.10.2012 14:31 10,9 C 90 % 1005,2 hPa 0,0 l/m 5,8 km/h (2 Bft) N 360 9,3 C 10,9 C
06.10.2012 14:36 10,9 C 90 % 1005,2 hPa 0,0 l/m 11,5 km/h (2 Bft) NW 315 9,3 C 10,9 C
06.10.2012 14:41 10,8 C 90 % 1005,5 hPa 0,0 l/m 6,5 km/h (2 Bft) N-NO 22 9,2 C 10,8 C
06.10.2012 14:46 10,8 C 90 % 1005,6 hPa 0,5 l/m 5,4 km/h (1 Bft) NW 315 9,2 C 10,8 C
06.10.2012 14:51 10,7 C 90 % 1005,7 hPa 0,0 l/m 3,6 km/h (1 Bft) N-NO 22 9,1 C 10,7 C
06.10.2012 14:56 10,8 C 91 % 1005,9 hPa 0,0 l/m 4,3 km/h (1 Bft) N-NW 337 9,4 C 10,8 C
06.10.2012 15:01 10,8 C 91 % 1006,0 hPa 0,0 l/m 6,5 km/h (2 Bft) W 270 9,4 C 10,8 C
06.10.2012 15:06 10,8 C 91 % 1006,2 hPa 0,0 l/m 6,5 km/h (2 Bft) N 360 9,4 C 10,8 C
06.10.2012 15:11 10,8 C 90 % 1006,3 hPa 0,0 l/m 18,4 km/h (3 Bft) N 360 9,2 C 10,8 C
06.10.2012 15:16 10,6 C 90 % 1006,6 hPa 0,0 l/m 7,9 km/h (2 Bft) N 360 9,0 C 10,6 C
06.10.2012 15:21 10,6 C 90 % 1006,9 hPa 0,0 l/m 9,4 km/h (2 Bft) N 360 9,0 C 10,6 C
06.10.2012 15:26 10,6 C 90 % 1007,0 hPa 0,0 l/m 8,3 km/h (2 Bft) W-NW 292 9,0 C 10,6 C
06.10.2012 15:31 10,6 C 90 % 1007,2 hPa 0,0 l/m 4,3 km/h (1 Bft) N-NO 22 9,0 C 10,6 C
06.10.2012 15:36 10,6 C 89 % 1007,3 hPa 0,0 l/m 5,0 km/h (1 Bft) W-NW 292 8,9 C 10,6 C
06.10.2012 15:41 10,7 C 90 % 1007,5 hPa 0,0 l/m 12,2 km/h (2 Bft) N-NW 337 9,1 C 10,7 C
06.10.2012 15:46 10,9 C 90 % 1007,5 hPa 0,0 l/m 6,1 km/h (2 Bft) NW 315 9,3 C 10,9 C
06.10.2012 15:51 10,8 C 90 % 1007,6 hPa 0,0 l/m 6,5 km/h (2 Bft) N-NW 337 9,2 C 10,8 C
06.10.2012 15:56 10,9 C 89 % 1008,0 hPa 0,0 l/m 16,2 km/h (3 Bft) W 270 9,2 C 10,9 C
06.10.2012 16:01 10,9 C 89 % 1008,1 hPa 0,0 l/m 11,9 km/h (2 Bft) NW 315 9,2 C 10,9 C
06.10.2012 16:06 10,9 C 88 % 1008,1 hPa 0,0 l/m 9,0 km/h (2 Bft) N-NW 337 9,0 C 10,9 C
06.10.2012 16:11 10,8 C 88 % 1008,4 hPa 0,0 l/m 10,1 km/h (2 Bft) NW 315 8,9 C 10,8 C
06.10.2012 16:16 10,8 C 88 % 1008,5 hPa 0,0 l/m 6,8 km/h (2 Bft) W-NW 292 8,9 C 10,8 C
06.10.2012 16:21 10,8 C 88 % 1008,5 hPa 0,0 l/m 16,2 km/h (3 Bft) N-NW 337 8,9 C 10,8 C
06.10.2012 16:26 11,1 C 87 % 1008,6 hPa 0,0 l/m 16,9 km/h (3 Bft) W 270 9,0 C 11,1 C
06.10.2012 16:31 11,2 C 86 % 1008,7 hPa 0,0 l/m 13,7 km/h (3 Bft) NW 315 8,9 C 11,2 C
06.10.2012 16:36 11,3 C 86 % 1008,8 hPa 0,0 l/m 6,5 km/h (2 Bft) W-NW 292 9,0 C 11,3 C
06.10.2012 16:41 11,3 C 85 % 1008,8 hPa 0,0 l/m 11,2 km/h (2 Bft) N-NW 337 8,9 C 11,3 C
06.10.2012 16:46 11,3 C 85 % 1009,0 hPa 0,0 l/m 5,8 km/h (2 Bft) W-NW 292 8,9 C 11,3 C
06.10.2012 16:51 11,2 C 85 % 1009,1 hPa 0,0 l/m 14,4 km/h (3 Bft) W 270 8,8 C 11,2 C
06.10.2012 16:56 11,1 C 85 % 1009,2 hPa 0,0 l/m 12,6 km/h (3 Bft) W-NW 292 8,7 C 11,1 C
06.10.2012 17:01 11,2 C 85 % 1009,3 hPa 0,0 l/m 11,2 km/h (2 Bft) W-NW 292 8,8 C 11,2 C
06.10.2012 17:06 11,1 C 86 % 1009,3 hPa 0,0 l/m 7,9 km/h (2 Bft) W-NW 292 8,8 C 11,1 C
06.10.2012 17:11 11,1 C 86 % 1009,5 hPa 0,0 l/m 18,4 km/h (3 Bft) NW 315 8,8 C 11,1 C
06.10.2012 17:16 11,1 C 85 % 1009,4 hPa 0,0 l/m 13,3 km/h (3 Bft) W-NW 292 8,7 C 11,1 C
06.10.2012 17:21 11,1 C 85 % 1009,8 hPa 0,0 l/m 12,2 km/h (2 Bft) NW 315 8,7 C 11,1 C
06.10.2012 17:26 11,2 C 85 % 1009,8 hPa 0,0 l/m 8,3 km/h (2 Bft) W-NW 292 8,8 C 11,2 C
06.10.2012 17:31 11,3 C 85 % 1010,0 hPa 0,0 l/m 9,7 km/h (2 Bft) NW 315 8,9 C 11,3 C
06.10.2012 17:36 11,3 C 85 % 1010,0 hPa 0,0 l/m 6,5 km/h (2 Bft) W 270 8,9 C 11,3 C
06.10.2012 17:41 11,3 C 85 % 1010,2 hPa 0,0 l/m 17,3 km/h (3 Bft) W-NW 292 8,9 C 11,3 C
06.10.2012 17:46 11,3 C 85 % 1010,3 hPa 0,0 l/m 6,1 km/h (2 Bft) W-NW 292 8,9 C 11,3 C
06.10.2012 17:51 11,2 C 84 % 1010,4 hPa 0,0 l/m 5,8 km/h (2 Bft) W-NW 292 8,6 C 11,2 C
06.10.2012 17:56 11,2 C 85 % 1010,5 hPa 0,0 l/m 6,5 km/h (2 Bft) W-NW 292 8,8 C 11,2 C
06.10.2012 18:01 11,1 C 85 % 1010,6 hPa 0,0 l/m 8,6 km/h (2 Bft) NW 315 8,7 C 11,1 C
06.10.2012 18:06 10,9 C 85 % 1010,7 hPa 0,0 l/m 10,1 km/h (2 Bft) NW 315 8,5 C 10,9 C
06.10.2012 18:11 10,9 C 85 % 1010,9 hPa 0,0 l/m 5,8 km/h (2 Bft) NW 315 8,5 C 10,9 C
06.10.2012 18:16 10,8 C 85 % 1010,9 hPa 0,0 l/m 5,0 km/h (1 Bft) W 270 8,4 C 10,8 C
06.10.2012 18:21 10,6 C 85 % 1011,0 hPa 0,0 l/m 14,4 km/h (3 Bft) NW 315 8,2 C 10,6 C
06.10.2012 18:26 10,5 C 85 % 1011,0 hPa 0,0 l/m 9,0 km/h (2 Bft) W-NW 292 8,1 C 10,5 C
06.10.2012 18:31 10,4 C 86 % 1011,1 hPa 0,0 l/m 10,4 km/h (2 Bft) W-NW 292 8,2 C 10,4 C
06.10.2012 18:36 10,4 C 86 % 1011,2 hPa 0,0 l/m 1,4 km/h (1 Bft) W-NW 292 8,2 C 10,4 C
06.10.2012 18:41 10,3 C 87 % 1011,2 hPa 0,0 l/m 5,0 km/h (1 Bft) W 270 8,2 C 10,3 C
06.10.2012 18:46 10,1 C 87 % 1011,3 hPa 0,0 l/m 9,4 km/h (2 Bft) NW 315 8,0 C 10,1 C
06.10.2012 18:51 10,1 C 87 % 1011,4 hPa 0,0 l/m 4,0 km/h (1 Bft) W-NW 292 8,0 C 10,1 C
06.10.2012 18:56 9,9 C 87 % 1011,5 hPa 0,0 l/m 4,3 km/h (1 Bft) W 270 7,8 C 9,9 C
06.10.2012 19:01 9,9 C 87 % 1011,6 hPa 0,0 l/m 2,5 km/h (1 Bft) W 270 7,8 C 9,9 C
06.10.2012 19:06 9,8 C 87 % 1011,6 hPa 0,0 l/m 3,2 km/h (1 Bft) W-NW 292 7,7 C 9,8 C
06.10.2012 19:11 9,8 C 87 % 1011,7 hPa 0,0 l/m 11,9 km/h (2 Bft) W 270 7,7 C 8,1 C
06.10.2012 19:16 9,7 C 87 % 1011,8 hPa 0,0 l/m 9,0 km/h (2 Bft) W-NW 292 7,6 C 8,5 C
06.10.2012 19:21 9,6 C 87 % 1011,9 hPa 0,0 l/m 5,8 km/h (2 Bft) W 270 7,5 C 9,1 C
06.10.2012 19:26 9,6 C 88 % 1011,9 hPa 0,0 l/m 9,7 km/h (2 Bft) W-SW 247 7,7 C 8,2 C
06.10.2012 19:31 9,6 C 88 % 1012,0 hPa 0,0 l/m 5,8 km/h (2 Bft) W 270 7,7 C 9,1 C
06.10.2012 19:36 9,5 C 88 % 1012,1 hPa 0,0 l/m 9,0 km/h (2 Bft) W-SW 247 7,6 C 8,2 C
06.10.2012 19:41 9,5 C 88 % 1012,1 hPa 0,0 l/m 8,3 km/h (2 Bft) W-SW 247 7,6 C 8,4 C
06.10.2012 19:46 9,4 C 88 % 1012,0 hPa 0,0 l/m 3,2 km/h (1 Bft) W-NW 292 7,5 C 9,4 C
06.10.2012 19:51 9,4 C 88 % 1012,1 hPa 0,0 l/m 5,8 km/h (2 Bft) W-SW 247 7,5 C 8,8 C
06.10.2012 19:56 9,4 C 88 % 1012,1 hPa 0,0 l/m 4,0 km/h (1 Bft) W-NW 292 7,5 C 9,4 C
06.10.2012 20:01 9,3 C 88 % 1012,1 hPa 0,0 l/m 6,1 km/h (2 Bft) NW 315 7,4 C 8,6 C
06.10.2012 20:06 9,3 C 89 % 1012,1 hPa 0,0 l/m 6,1 km/h (2 Bft) W-SW 247 7,6 C 8,6 C
06.10.2012 20:11 9,2 C 89 % 1012,3 hPa 0,0 l/m 11,5 km/h (2 Bft) W-SW 247 7,5 C 7,4 C
06.10.2012 20:16 9,1 C 89 % 1012,3 hPa 0,0 l/m 7,6 km/h (2 Bft) W-SW 247 7,4 C 8,0 C
06.10.2012 20:21 9,0 C 89 % 1012,4 hPa 0,0 l/m 8,3 km/h (2 Bft) W-SW 247 7,3 C 7,8 C
06.10.2012 20:26 8,9 C 89 % 1012,4 hPa 0,0 l/m 2,9 km/h (1 Bft) W 270 7,2 C 8,9 C
06.10.2012 20:31 8,9 C 89 % 1012,5 hPa 0,0 l/m 13,3 km/h (3 Bft) W 270 7,2 C 6,8 C
06.10.2012 20:36 8,9 C 89 % 1012,5 hPa 0,0 l/m 14,4 km/h (3 Bft) W-SW 247 7,2 C 6,6 C
06.10.2012 20:41 8,8 C 89 % 1012,7 hPa 0,0 l/m 6,5 km/h (2 Bft) W-SW 247 7,1 C 8,0 C
06.10.2012 20:46 8,8 C 90 % 1012,7 hPa 0,0 l/m 4,3 km/h (1 Bft) W-SW 247 7,3 C 8,8 C
06.10.2012 20:51 8,8 C 90 % 1012,8 hPa 0,0 l/m 5,4 km/h (1 Bft) W-SW 247 7,3 C 8,3 C
06.10.2012 20:56 8,7 C 90 % 1012,9 hPa 0,0 l/m 5,0 km/h (1 Bft) W 270 7,2 C 8,3 C
06.10.2012 21:01 8,7 C 90 % 1012,9 hPa 0,0 l/m 6,8 km/h (2 Bft) W-SW 247 7,2 C 7,8 C
06.10.2012 21:06 8,7 C 90 % 1012,9 hPa 0,0 l/m 8,3 km/h (2 Bft) W 270 7,2 C 7,4 C
06.10.2012 21:11 8,6 C 90 % 1013,0 hPa 0,0 l/m 6,1 km/h (2 Bft) W-SW 247 7,1 C 7,8 C
06.10.2012 21:16 8,6 C 90 % 1013,0 hPa 0,0 l/m 9,7 km/h (2 Bft) W 270 7,1 C 7,0 C
06.10.2012 21:21 8,6 C 91 % 1013,0 hPa 0,0 l/m 13,7 km/h (3 Bft) W 270 7,2 C 6,4 C
06.10.2012 21:26 8,6 C 91 % 1013,0 hPa 0,0 l/m 10,1 km/h (2 Bft) W 270 7,2 C 6,9 C
06.10.2012 21:31 8,6 C 91 % 1013,0 hPa 0,0 l/m 5,8 km/h (2 Bft) W 270 7,2 C 7,9 C
06.10.2012 21:36 8,6 C 91 % 1013,1 hPa 0,0 l/m 7,9 km/h (2 Bft) W-SW 247 7,2 C 7,4 C
06.10.2012 21:41 8,6 C 91 % 1013,2 hPa 0,0 l/m 3,6 km/h (1 Bft) W 270 7,2 C 8,6 C
06.10.2012 21:46 8,6 C 91 % 1013,3 hPa 0,0 l/m 13,7 km/h (3 Bft) W-NW 292 7,2 C 6,4 C
06.10.2012 21:51 8,6 C 91 % 1013,3 hPa 0,0 l/m 1,1 km/h (1 Bft) W 270 7,2 C 8,6 C
06.10.2012 21:56 8,6 C 91 % 1013,3 hPa 0,0 l/m 10,1 km/h (2 Bft) W 270 7,2 C 6,9 C
06.10.2012 22:01 8,7 C 91 % 1013,2 hPa 0,0 l/m 16,6 km/h (3 Bft) W-SW 247 7,3 C 6,1 C
06.10.2012 22:06 8,6 C 91 % 1013,3 hPa 0,0 l/m 4,7 km/h (1 Bft) W-NW 292 7,2 C 8,3 C
06.10.2012 22:11 8,6 C 91 % 1013,4 hPa 0,0 l/m 7,2 km/h (2 Bft) W-SW 247 7,2 C 7,5 C
06.10.2012 22:16 8,6 C 91 % 1013,4 hPa 0,0 l/m 13,7 km/h (3 Bft) W 270 7,2 C 6,4 C
06.10.2012 22:21 8,6 C 91 % 1013,4 hPa 0,0 l/m 6,5 km/h (2 Bft) W-SW 247 7,2 C 7,7 C
06.10.2012 22:26 8,6 C 91 % 1013,5 hPa 0,0 l/m 5,0 km/h (1 Bft) W-SW 247 7,2 C 8,2 C
06.10.2012 22:31 8,5 C 91 % 1013,5 hPa 0,0 l/m 12,2 km/h (2 Bft) W 270 7,1 C 6,5 C
06.10.2012 22:36 8,5 C 91 % 1013,7 hPa 0,0 l/m 7,2 km/h (2 Bft) W-SW 247 7,1 C 7,4 C
06.10.2012 22:41 8,5 C 91 % 1013,5 hPa 0,0 l/m 13,0 km/h (3 Bft) W-SW 247 7,1 C 6,3 C
06.10.2012 22:46 8,4 C 91 % 1013,5 hPa 0,0 l/m 5,8 km/h (2 Bft) W-SW 247 7,0 C 7,7 C
06.10.2012 22:51 8,4 C 91 % 1013,5 hPa 0,0 l/m 9,7 km/h (2 Bft) W 270 7,0 C 6,8 C
06.10.2012 22:56 8,4 C 91 % 1013,6 hPa 0,0 l/m 4,3 km/h (1 Bft) W-SW 247 7,0 C 8,4 C
06.10.2012 23:01 8,3 C 91 % 1013,5 hPa 0,0 l/m 3,6 km/h (1 Bft) SW 225 6,9 C 8,3 C
06.10.2012 23:06 8,3 C 91 % 1013,5 hPa 0,0 l/m 6,5 km/h (2 Bft) W 270 6,9 C 7,4 C
06.10.2012 23:11 8,3 C 91 % 1013,8 hPa 0,0 l/m 9,7 km/h (2 Bft) W-SW 247 6,9 C 6,7 C
06.10.2012 23:16 8,3 C 91 % 1013,8 hPa 0,0 l/m 7,6 km/h (2 Bft) W 270 6,9 C 7,1 C
06.10.2012 23:21 8,2 C 91 % 1013,9 hPa 0,0 l/m 16,6 km/h (3 Bft) W-SW 247 6,8 C 5,5 C
06.10.2012 23:26 8,3 C 91 % 1013,9 hPa 0,0 l/m 8,3 km/h (2 Bft) W-SW 247 6,9 C 6,9 C
06.10.2012 23:31 8,2 C 91 % 1014,0 hPa 0,0 l/m 3,6 km/h (1 Bft) W-SW 247 6,8 C 8,2 C
06.10.2012 23:36 8,2 C 91 % 1013,9 hPa 0,0 l/m 3,2 km/h (1 Bft) SW 225 6,8 C 8,2 C
06.10.2012 23:41 8,1 C 91 % 1013,9 hPa 0,0 l/m 3,2 km/h (1 Bft) W-SW 247 6,7 C 8,1 C
06.10.2012 23:46 8,1 C 91 % 1013,9 hPa 0,0 l/m 6,1 km/h (2 Bft) SW 225 6,7 C 7,3 C
06.10.2012 23:51 8,1 C 91 % 1014,1 hPa 0,0 l/m 6,1 km/h (2 Bft) W-SW 247 6,7 C 7,3 C
06.10.2012 23:56 7,9 C 92 % 1014,1 hPa 0,0 l/m 9,7 km/h (2 Bft) W-SW 247 6,7 C 6,2 C
_ Min-Zeit 23:56 00:21 13:56 - 06:41 - - 23:56 23:21
Minimum _ 7,9 C 78 % 1003,7 hPa - 0,0 km/h (0 Bft) - - 6,7 C 5,5 C
_ Max-Zeit 13:26 12:01 23:51 14:16 01:31 - - 13:26 13:26
Maximum _ 13,9 C 92 % 1014,1 hPa 4,7 l/m 29,5 km/h
W (5 Bft)
- - 12,3 C 13,9 C
Durchschnitt _ 10,6 C 87 % 1009,4 hPa #17,1 l/m 8,1 km/h (2 Bft) W-SW - 8,6 C 10,4 C
(c) by David Heller